sensor_id;sensor_type;location;lat;lon;timestamp;P1;durP1;ratioP1;P2;durP2;ratioP2
12631;SDS011;6381;45.748;12.106;2023-10-09T00:01:04;36.42;;;28.70;;
12631;SDS011;6381;45.748;12.106;2023-10-09T00:03:37;33.35;;;29.25;;
12631;SDS011;6381;45.748;12.106;2023-10-09T00:06:06;35.53;;;30.20;;
12631;SDS011;6381;45.748;12.106;2023-10-09T00:08:37;37.15;;;30.17;;
12631;SDS011;6381;45.748;12.106;2023-10-09T00:11:13;37.70;;;31.77;;
12631;SDS011;6381;45.748;12.106;2023-10-09T00:13:44;40.60;;;32.05;;
12631;SDS011;6381;45.748;12.106;2023-10-09T00:16:18;39.65;;;31.65;;
12631;SDS011;6381;45.748;12.106;2023-10-09T00:19:00;40.58;;;32.83;;
12631;SDS011;6381;45.748;12.106;2023-10-09T00:21:44;43.72;;;33.22;;
12631;SDS011;6381;45.748;12.106;2023-10-09T00:24:14;40.50;;;34.70;;
12631;SDS011;6381;45.748;12.106;2023-10-09T00:26:53;48.05;;;33.20;;
12631;SDS011;6381;45.748;12.106;2023-10-09T00:29:38;41.97;;;34.97;;
12631;SDS011;6381;45.748;12.106;2023-10-09T00:32:12;45.65;;;35.97;;
12631;SDS011;6381;45.748;12.106;2023-10-09T00:34:50;45.55;;;35.70;;
12631;SDS011;6381;45.748;12.106;2023-10-09T00:37:20;49.20;;;38.33;;
12631;SDS011;6381;45.748;12.106;2023-10-09T00:39:53;51.83;;;39.50;;
12631;SDS011;6381;45.748;12.106;2023-10-09T00:42:25;54.05;;;42.30;;
12631;SDS011;6381;45.748;12.106;2023-10-09T00:44:57;53.63;;;43.17;;
12631;SDS011;6381;45.748;12.106;2023-10-09T00:47:30;56.63;;;45.45;;
12631;SDS011;6381;45.748;12.106;2023-10-09T00:50:03;58.20;;;44.83;;
12631;SDS011;6381;45.748;12.106;2023-10-09T00:52:49;58.65;;;48.03;;
12631;SDS011;6381;45.748;12.106;2023-10-09T00:55:30;64.32;;;49.40;;
12631;SDS011;6381;45.748;12.106;2023-10-09T00:58:07;64.10;;;47.00;;
12631;SDS011;6381;45.748;12.106;2023-10-09T01:00:40;62.15;;;46.15;;
12631;SDS011;6381;45.748;12.106;2023-10-09T01:03:14;59.63;;;46.88;;
12631;SDS011;6381;45.748;12.106;2023-10-09T01:05:48;61.72;;;48.65;;
12631;SDS011;6381;45.748;12.106;2023-10-09T01:08:24;64.47;;;49.35;;
12631;SDS011;6381;45.748;12.106;2023-10-09T01:11:10;62.00;;;48.38;;
12631;SDS011;6381;45.748;12.106;2023-10-09T01:13:47;60.25;;;47.83;;
12631;SDS011;6381;45.748;12.106;2023-10-09T01:16:23;61.92;;;48.80;;
12631;SDS011;6381;45.748;12.106;2023-10-09T01:18:53;58.72;;;44.40;;
12631;SDS011;6381;45.748;12.106;2023-10-09T01:21:25;62.40;;;49.10;;
12631;SDS011;6381;45.748;12.106;2023-10-09T01:23:56;61.28;;;45.85;;
12631;SDS011;6381;45.748;12.106;2023-10-09T01:26:36;62.42;;;48.70;;
12631;SDS011;6381;45.748;12.106;2023-10-09T01:29:14;59.42;;;46.83;;
12631;SDS011;6381;45.748;12.106;2023-10-09T01:31:46;60.35;;;46.92;;
12631;SDS011;6381;45.748;12.106;2023-10-09T01:34:22;66.95;;;49.45;;
12631;SDS011;6381;45.748;12.106;2023-10-09T01:37:01;62.65;;;48.10;;
12631;SDS011;6381;45.748;12.106;2023-10-09T01:39:34;62.38;;;46.85;;
12631;SDS011;6381;45.748;12.106;2023-10-09T01:42:09;69.40;;;49.50;;
12631;SDS011;6381;45.748;12.106;2023-10-09T01:44:50;60.58;;;47.67;;
12631;SDS011;6381;45.748;12.106;2023-10-09T01:47:20;60.80;;;47.30;;
12631;SDS011;6381;45.748;12.106;2023-10-09T01:49:49;64.75;;;50.53;;
12631;SDS011;6381;45.748;12.106;2023-10-09T01:52:20;61.75;;;47.45;;
12631;SDS011;6381;45.748;12.106;2023-10-09T01:54:52;65.05;;;48.15;;
12631;SDS011;6381;45.748;12.106;2023-10-09T01:57:28;65.07;;;49.58;;
12631;SDS011;6381;45.748;12.106;2023-10-09T01:59:58;71.25;;;52.03;;
12631;SDS011;6381;45.748;12.106;2023-10-09T02:02:37;70.45;;;51.45;;
12631;SDS011;6381;45.748;12.106;2023-10-09T02:05:13;61.85;;;46.58;;
12631;SDS011;6381;45.748;12.106;2023-10-09T02:07:52;67.88;;;49.05;;
12631;SDS011;6381;45.748;12.106;2023-10-09T02:10:23;65.80;;;48.78;;
12631;SDS011;6381;45.748;12.106;2023-10-09T02:13:00;63.55;;;49.42;;
12631;SDS011;6381;45.748;12.106;2023-10-09T02:15:35;68.13;;;50.17;;
12631;SDS011;6381;45.748;12.106;2023-10-09T02:18:21;65.72;;;49.45;;
12631;SDS011;6381;45.748;12.106;2023-10-09T02:21:20;71.10;;;52.08;;
12631;SDS011;6381;45.748;12.106;2023-10-09T02:24:01;70.47;;;49.35;;
12631;SDS011;6381;45.748;12.106;2023-10-09T02:26:36;62.90;;;49.65;;
12631;SDS011;6381;45.748;12.106;2023-10-09T02:29:24;65.65;;;49.05;;
12631;SDS011;6381;45.748;12.106;2023-10-09T02:31:54;63.55;;;48.42;;
12631;SDS011;6381;45.748;12.106;2023-10-09T02:34:28;61.90;;;46.95;;
12631;SDS011;6381;45.748;12.106;2023-10-09T02:37:05;67.18;;;47.50;;
12631;SDS011;6381;45.748;12.106;2023-10-09T02:39:38;59.85;;;45.65;;
12631;SDS011;6381;45.748;12.106;2023-10-09T02:42:17;61.22;;;44.95;;
12631;SDS011;6381;45.748;12.106;2023-10-09T02:44:52;58.22;;;46.63;;
12631;SDS011;6381;45.748;12.106;2023-10-09T02:47:22;60.85;;;44.85;;
12631;SDS011;6381;45.748;12.106;2023-10-09T02:49:57;63.78;;;46.60;;
12631;SDS011;6381;45.748;12.106;2023-10-09T02:52:33;63.70;;;46.30;;
12631;SDS011;6381;45.748;12.106;2023-10-09T02:55:08;59.42;;;43.78;;
12631;SDS011;6381;45.748;12.106;2023-10-09T02:57:43;66.20;;;47.70;;
12631;SDS011;6381;45.748;12.106;2023-10-09T03:00:18;60.80;;;46.63;;
12631;SDS011;6381;45.748;12.106;2023-10-09T03:02:59;58.33;;;44.58;;
12631;SDS011;6381;45.748;12.106;2023-10-09T03:05:33;61.95;;;44.97;;
12631;SDS011;6381;45.748;12.106;2023-10-09T03:08:05;56.10;;;42.97;;
12631;SDS011;6381;45.748;12.106;2023-10-09T03:10:35;56.60;;;41.10;;
12631;SDS011;6381;45.748;12.106;2023-10-09T03:13:07;46.70;;;37.70;;
12631;SDS011;6381;45.748;12.106;2023-10-09T03:15:37;44.00;;;34.30;;
12631;SDS011;6381;45.748;12.106;2023-10-09T03:18:10;38.88;;;29.77;;
12631;SDS011;6381;45.748;12.106;2023-10-09T03:20:42;37.35;;;27.70;;
12631;SDS011;6381;45.748;12.106;2023-10-09T03:23:12;36.30;;;27.67;;
12631;SDS011;6381;45.748;12.106;2023-10-09T03:25:42;31.80;;;25.65;;
12631;SDS011;6381;45.748;12.106;2023-10-09T03:28:14;30.52;;;23.83;;
12631;SDS011;6381;45.748;12.106;2023-10-09T03:30:43;31.30;;;23.70;;
12631;SDS011;6381;45.748;12.106;2023-10-09T03:33:14;29.40;;;23.25;;
12631;SDS011;6381;45.748;12.106;2023-10-09T03:35:43;25.63;;;20.45;;
12631;SDS011;6381;45.748;12.106;2023-10-09T03:38:12;27.77;;;20.75;;
12631;SDS011;6381;45.748;12.106;2023-10-09T03:40:45;23.25;;;18.80;;
12631;SDS011;6381;45.748;12.106;2023-10-09T03:43:16;24.10;;;19.05;;
12631;SDS011;6381;45.748;12.106;2023-10-09T03:45:46;24.23;;;17.90;;
12631;SDS011;6381;45.748;12.106;2023-10-09T03:48:19;22.02;;;16.73;;
12631;SDS011;6381;45.748;12.106;2023-10-09T03:50:54;21.23;;;16.55;;
12631;SDS011;6381;45.748;12.106;2023-10-09T03:53:36;24.48;;;16.13;;
12631;SDS011;6381;45.748;12.106;2023-10-09T03:56:07;21.50;;;17.55;;
12631;SDS011;6381;45.748;12.106;2023-10-09T03:58:42;19.08;;;17.05;;
12631;SDS011;6381;45.748;12.106;2023-10-09T04:01:12;20.40;;;16.42;;
12631;SDS011;6381;45.748;12.106;2023-10-09T04:03:50;19.38;;;17.38;;
12631;SDS011;6381;45.748;12.106;2023-10-09T04:06:22;21.70;;;18.17;;
12631;SDS011;6381;45.748;12.106;2023-10-09T04:08:55;23.58;;;17.55;;
12631;SDS011;6381;45.748;12.106;2023-10-09T04:11:26;21.27;;;16.63;;
12631;SDS011;6381;45.748;12.106;2023-10-09T04:13:56;24.10;;;17.15;;
12631;SDS011;6381;45.748;12.106;2023-10-09T04:16:27;20.60;;;17.23;;
12631;SDS011;6381;45.748;12.106;2023-10-09T04:19:18;18.98;;;16.10;;
12631;SDS011;6381;45.748;12.106;2023-10-09T04:21:49;20.73;;;16.55;;
12631;SDS011;6381;45.748;12.106;2023-10-09T04:24:19;20.80;;;16.98;;
12631;SDS011;6381;45.748;12.106;2023-10-09T04:26:51;23.65;;;18.05;;
12631;SDS011;6381;45.748;12.106;2023-10-09T04:29:27;27.88;;;18.67;;
12631;SDS011;6381;45.748;12.106;2023-10-09T04:32:05;25.42;;;18.40;;
12631;SDS011;6381;45.748;12.106;2023-10-09T04:34:45;25.30;;;19.88;;
12631;SDS011;6381;45.748;12.106;2023-10-09T04:37:23;30.88;;;23.20;;
12631;SDS011;6381;45.748;12.106;2023-10-09T04:40:04;31.73;;;23.85;;
12631;SDS011;6381;45.748;12.106;2023-10-09T04:42:40;31.40;;;25.00;;
12631;SDS011;6381;45.748;12.106;2023-10-09T04:45:26;36.97;;;26.13;;
12631;SDS011;6381;45.748;12.106;2023-10-09T04:48:24;30.00;;;25.13;;
12631;SDS011;6381;45.748;12.106;2023-10-09T04:51:05;33.72;;;27.40;;
12631;SDS011;6381;45.748;12.106;2023-10-09T04:53:48;32.13;;;26.50;;
12631;SDS011;6381;45.748;12.106;2023-10-09T04:56:27;35.25;;;28.67;;
12631;SDS011;6381;45.748;12.106;2023-10-09T04:59:00;37.60;;;27.90;;
12631;SDS011;6381;45.748;12.106;2023-10-09T05:01:37;36.88;;;30.60;;
12631;SDS011;6381;45.748;12.106;2023-10-09T05:04:11;37.22;;;30.15;;
12631;SDS011;6381;45.748;12.106;2023-10-09T05:06:54;40.30;;;31.17;;
12631;SDS011;6381;45.748;12.106;2023-10-09T05:09:23;40.28;;;31.23;;
12631;SDS011;6381;45.748;12.106;2023-10-09T05:11:53;44.13;;;31.23;;
12631;SDS011;6381;45.748;12.106;2023-10-09T05:14:27;41.75;;;29.75;;
12631;SDS011;6381;45.748;12.106;2023-10-09T05:17:09;38.53;;;29.92;;
12631;SDS011;6381;45.748;12.106;2023-10-09T05:19:43;37.75;;;29.20;;
12631;SDS011;6381;45.748;12.106;2023-10-09T05:22:44;39.83;;;27.50;;
12631;SDS011;6381;45.748;12.106;2023-10-09T05:25:24;36.03;;;28.17;;
12631;SDS011;6381;45.748;12.106;2023-10-09T05:28:11;39.03;;;28.63;;
12631;SDS011;6381;45.748;12.106;2023-10-09T05:30:54;33.53;;;26.20;;
12631;SDS011;6381;45.748;12.106;2023-10-09T05:33:35;39.08;;;28.40;;
12631;SDS011;6381;45.748;12.106;2023-10-09T05:36:05;35.63;;;26.48;;
12631;SDS011;6381;45.748;12.106;2023-10-09T05:38:59;43.92;;;29.60;;
12631;SDS011;6381;45.748;12.106;2023-10-09T05:41:45;36.45;;;28.15;;
12631;SDS011;6381;45.748;12.106;2023-10-09T05:44:19;36.88;;;28.30;;
12631;SDS011;6381;45.748;12.106;2023-10-09T05:47:11;31.98;;;27.58;;
12631;SDS011;6381;45.748;12.106;2023-10-09T05:50:21;35.70;;;27.42;;
12631;SDS011;6381;45.748;12.106;2023-10-09T05:53:02;35.55;;;28.15;;
12631;SDS011;6381;45.748;12.106;2023-10-09T05:55:58;37.13;;;28.45;;
12631;SDS011;6381;45.748;12.106;2023-10-09T05:58:44;34.80;;;26.50;;
12631;SDS011;6381;45.748;12.106;2023-10-09T06:01:31;35.97;;;26.80;;
12631;SDS011;6381;45.748;12.106;2023-10-09T06:04:17;39.53;;;28.58;;
12631;SDS011;6381;45.748;12.106;2023-10-09T06:06:49;38.45;;;29.30;;
12631;SDS011;6381;45.748;12.106;2023-10-09T06:09:24;38.25;;;26.20;;
12631;SDS011;6381;45.748;12.106;2023-10-09T06:12:24;38.38;;;27.25;;
12631;SDS011;6381;45.748;12.106;2023-10-09T06:15:21;37.47;;;27.95;;
12631;SDS011;6381;45.748;12.106;2023-10-09T06:18:18;32.28;;;25.77;;
12631;SDS011;6381;45.748;12.106;2023-10-09T06:20:53;37.63;;;26.70;;
12631;SDS011;6381;45.748;12.106;2023-10-09T06:23:54;34.03;;;25.65;;
12631;SDS011;6381;45.748;12.106;2023-10-09T06:26:42;29.08;;;23.50;;
12631;SDS011;6381;45.748;12.106;2023-10-09T06:29:39;33.10;;;21.80;;
12631;SDS011;6381;45.748;12.106;2023-10-09T06:32:19;31.60;;;20.63;;
12631;SDS011;6381;45.748;12.106;2023-10-09T06:35:05;24.02;;;18.38;;
12631;SDS011;6381;45.748;12.106;2023-10-09T06:37:45;24.15;;;17.75;;
12631;SDS011;6381;45.748;12.106;2023-10-09T06:40:46;25.23;;;18.13;;
12631;SDS011;6381;45.748;12.106;2023-10-09T06:43:34;26.75;;;16.38;;
12631;SDS011;6381;45.748;12.106;2023-10-09T06:46:14;23.42;;;15.63;;
12631;SDS011;6381;45.748;12.106;2023-10-09T06:49:01;20.20;;;15.77;;
12631;SDS011;6381;45.748;12.106;2023-10-09T06:51:56;20.40;;;15.10;;
12631;SDS011;6381;45.748;12.106;2023-10-09T06:54:25;23.00;;;14.38;;
12631;SDS011;6381;45.748;12.106;2023-10-09T06:57:05;20.98;;;13.85;;
12631;SDS011;6381;45.748;12.106;2023-10-09T06:59:51;18.50;;;13.20;;
12631;SDS011;6381;45.748;12.106;2023-10-09T07:03:04;26.05;;;13.80;;
12631;SDS011;6381;45.748;12.106;2023-10-09T07:05:38;18.52;;;12.73;;
12631;SDS011;6381;45.748;12.106;2023-10-09T07:08:27;19.65;;;13.68;;
12631;SDS011;6381;45.748;12.106;2023-10-09T07:11:00;16.55;;;13.18;;
12631;SDS011;6381;45.748;12.106;2023-10-09T07:13:49;15.95;;;13.18;;
12631;SDS011;6381;45.748;12.106;2023-10-09T07:16:21;15.40;;;12.02;;
12631;SDS011;6381;45.748;12.106;2023-10-09T07:18:55;16.10;;;11.75;;
12631;SDS011;6381;45.748;12.106;2023-10-09T07:21:36;18.70;;;12.52;;
12631;SDS011;6381;45.748;12.106;2023-10-09T07:24:06;15.88;;;11.32;;
12631;SDS011;6381;45.748;12.106;2023-10-09T07:26:44;16.23;;;12.63;;
12631;SDS011;6381;45.748;12.106;2023-10-09T07:29:22;16.83;;;11.98;;
12631;SDS011;6381;45.748;12.106;2023-10-09T07:31:51;19.52;;;11.07;;
12631;SDS011;6381;45.748;12.106;2023-10-09T07:34:25;17.58;;;11.38;;
12631;SDS011;6381;45.748;12.106;2023-10-09T07:37:20;16.55;;;10.88;;
12631;SDS011;6381;45.748;12.106;2023-10-09T07:39:58;15.65;;;10.10;;
12631;SDS011;6381;45.748;12.106;2023-10-09T07:42:33;18.95;;;11.23;;
12631;SDS011;6381;45.748;12.106;2023-10-09T07:45:12;17.33;;;10.88;;
12631;SDS011;6381;45.748;12.106;2023-10-09T07:48:03;15.43;;;10.75;;
12631;SDS011;6381;45.748;12.106;2023-10-09T07:50:36;15.05;;;10.52;;
12631;SDS011;6381;45.748;12.106;2023-10-09T07:53:16;13.07;;;10.90;;
12631;SDS011;6381;45.748;12.106;2023-10-09T07:55:54;17.48;;;10.75;;
12631;SDS011;6381;45.748;12.106;2023-10-09T07:58:25;13.98;;;11.02;;
12631;SDS011;6381;45.748;12.106;2023-10-09T08:00:56;14.95;;;10.63;;
12631;SDS011;6381;45.748;12.106;2023-10-09T08:03:43;16.88;;;10.63;;
12631;SDS011;6381;45.748;12.106;2023-10-09T08:06:24;13.23;;;10.93;;
12631;SDS011;6381;45.748;12.106;2023-10-09T08:09:31;16.05;;;11.45;;
12631;SDS011;6381;45.748;12.106;2023-10-09T08:12:14;15.80;;;11.85;;
12631;SDS011;6381;45.748;12.106;2023-10-09T08:14:58;16.48;;;10.93;;
12631;SDS011;6381;45.748;12.106;2023-10-09T08:17:50;14.85;;;10.68;;
12631;SDS011;6381;45.748;12.106;2023-10-09T08:20:21;16.17;;;10.57;;
12631;SDS011;6381;45.748;12.106;2023-10-09T08:22:53;17.77;;;9.52;;
12631;SDS011;6381;45.748;12.106;2023-10-09T08:25:23;18.70;;;10.32;;
12631;SDS011;6381;45.748;12.106;2023-10-09T08:27:59;16.13;;;9.00;;
12631;SDS011;6381;45.748;12.106;2023-10-09T08:30:43;22.58;;;9.15;;
12631;SDS011;6381;45.748;12.106;2023-10-09T08:33:20;13.88;;;8.80;;
12631;SDS011;6381;45.748;12.106;2023-10-09T08:36:09;13.50;;;9.65;;
12631;SDS011;6381;45.748;12.106;2023-10-09T08:38:42;16.58;;;10.02;;
12631;SDS011;6381;45.748;12.106;2023-10-09T08:41:12;20.13;;;9.25;;
12631;SDS011;6381;45.748;12.106;2023-10-09T08:43:49;18.15;;;10.23;;
12631;SDS011;6381;45.748;12.106;2023-10-09T08:46:20;16.73;;;9.70;;
12631;SDS011;6381;45.748;12.106;2023-10-09T08:48:57;15.98;;;10.60;;
12631;SDS011;6381;45.748;12.106;2023-10-09T08:51:27;17.65;;;10.48;;
12631;SDS011;6381;45.748;12.106;2023-10-09T08:53:58;21.85;;;11.23;;
12631;SDS011;6381;45.748;12.106;2023-10-09T08:56:27;14.60;;;10.57;;
12631;SDS011;6381;45.748;12.106;2023-10-09T08:58:56;19.48;;;12.45;;
12631;SDS011;6381;45.748;12.106;2023-10-09T09:01:29;17.25;;;10.88;;
12631;SDS011;6381;45.748;12.106;2023-10-09T09:04:00;15.00;;;9.65;;
12631;SDS011;6381;45.748;12.106;2023-10-09T09:06:36;15.73;;;10.15;;
12631;SDS011;6381;45.748;12.106;2023-10-09T09:09:11;20.38;;;10.55;;
12631;SDS011;6381;45.748;12.106;2023-10-09T09:11:43;21.75;;;12.85;;
12631;SDS011;6381;45.748;12.106;2023-10-09T09:14:17;20.35;;;14.27;;
12631;SDS011;6381;45.748;12.106;2023-10-09T09:16:49;26.90;;;15.40;;
12631;SDS011;6381;45.748;12.106;2023-10-09T09:19:21;24.20;;;14.50;;
12631;SDS011;6381;45.748;12.106;2023-10-09T09:22:05;23.55;;;10.70;;
12631;SDS011;6381;45.748;12.106;2023-10-09T09:24:41;16.58;;;11.60;;
12631;SDS011;6381;45.748;12.106;2023-10-09T09:30:22;26.80;;;14.98;;
12631;SDS011;6381;45.748;12.106;2023-10-09T09:32:55;24.15;;;15.25;;
12631;SDS011;6381;45.748;12.106;2023-10-09T09:35:39;25.52;;;15.82;;
12631;SDS011;6381;45.748;12.106;2023-10-09T09:38:25;27.02;;;17.20;;
12631;SDS011;6381;45.748;12.106;2023-10-09T09:40:56;20.75;;;14.45;;
12631;SDS011;6381;45.748;12.106;2023-10-09T09:43:29;23.48;;;15.75;;
12631;SDS011;6381;45.748;12.106;2023-10-09T09:46:02;25.05;;;17.65;;
12631;SDS011;6381;45.748;12.106;2023-10-09T09:48:37;29.25;;;19.33;;
12631;SDS011;6381;45.748;12.106;2023-10-09T09:51:13;28.98;;;19.70;;
12631;SDS011;6381;45.748;12.106;2023-10-09T09:53:44;24.17;;;17.60;;
12631;SDS011;6381;45.748;12.106;2023-10-09T09:56:18;26.33;;;16.80;;
12631;SDS011;6381;45.748;12.106;2023-10-09T09:58:52;27.08;;;18.08;;
12631;SDS011;6381;45.748;12.106;2023-10-09T10:01:25;30.45;;;17.55;;
12631;SDS011;6381;45.748;12.106;2023-10-09T10:03:59;23.17;;;17.80;;
12631;SDS011;6381;45.748;12.106;2023-10-09T10:06:35;27.70;;;18.70;;
12631;SDS011;6381;45.748;12.106;2023-10-09T10:09:07;23.60;;;17.65;;
12631;SDS011;6381;45.748;12.106;2023-10-09T10:11:43;26.90;;;18.02;;
12631;SDS011;6381;45.748;12.106;2023-10-09T10:14:13;25.63;;;18.73;;
12631;SDS011;6381;45.748;12.106;2023-10-09T10:17:03;20.88;;;17.23;;
12631;SDS011;6381;45.748;12.106;2023-10-09T10:20:00;27.52;;;17.55;;
12631;SDS011;6381;45.748;12.106;2023-10-09T10:25:48;24.10;;;16.70;;
12631;SDS011;6381;45.748;12.106;2023-10-09T10:28:18;21.17;;;16.50;;
12631;SDS011;6381;45.748;12.106;2023-10-09T10:31:06;20.38;;;17.10;;
12631;SDS011;6381;45.748;12.106;2023-10-09T10:36:38;22.73;;;16.98;;
12631;SDS011;6381;45.748;12.106;2023-10-09T10:39:13;25.23;;;18.63;;
12631;SDS011;6381;45.748;12.106;2023-10-09T10:41:55;21.65;;;17.00;;
12631;SDS011;6381;45.748;12.106;2023-10-09T10:44:27;28.05;;;16.38;;
12631;SDS011;6381;45.748;12.106;2023-10-09T10:47:04;22.33;;;17.92;;
12631;SDS011;6381;45.748;12.106;2023-10-09T10:49:49;28.08;;;19.92;;
12631;SDS011;6381;45.748;12.106;2023-10-09T10:52:21;25.73;;;20.13;;
12631;SDS011;6381;45.748;12.106;2023-10-09T10:55:11;28.58;;;19.17;;
12631;SDS011;6381;45.748;12.106;2023-10-09T10:58:16;25.88;;;17.00;;
12631;SDS011;6381;45.748;12.106;2023-10-09T11:00:54;24.27;;;18.05;;
12631;SDS011;6381;45.748;12.106;2023-10-09T11:03:41;24.85;;;17.35;;
12631;SDS011;6381;45.748;12.106;2023-10-09T11:06:25;23.60;;;16.08;;
12631;SDS011;6381;45.748;12.106;2023-10-09T11:09:04;25.58;;;18.27;;
12631;SDS011;6381;45.748;12.106;2023-10-09T11:11:50;27.50;;;18.33;;
12631;SDS011;6381;45.748;12.106;2023-10-09T11:14:22;21.67;;;18.08;;
12631;SDS011;6381;45.748;12.106;2023-10-09T11:16:50;21.63;;;17.13;;
12631;SDS011;6381;45.748;12.106;2023-10-09T11:19:25;26.75;;;17.92;;
12631;SDS011;6381;45.748;12.106;2023-10-09T11:21:59;20.40;;;16.35;;
12631;SDS011;6381;45.748;12.106;2023-10-09T11:24:58;20.05;;;16.38;;
12631;SDS011;6381;45.748;12.106;2023-10-09T11:27:41;22.10;;;15.55;;
12631;SDS011;6381;45.748;12.106;2023-10-09T11:30:18;29.25;;;16.80;;
12631;SDS011;6381;45.748;12.106;2023-10-09T11:33:04;24.88;;;17.08;;
12631;SDS011;6381;45.748;12.106;2023-10-09T11:35:33;21.45;;;14.90;;
12631;SDS011;6381;45.748;12.106;2023-10-09T11:38:03;20.70;;;13.65;;
12631;SDS011;6381;45.748;12.106;2023-10-09T11:40:48;17.73;;;14.40;;
12631;SDS011;6381;45.748;12.106;2023-10-09T11:43:47;25.67;;;18.58;;
12631;SDS011;6381;45.748;12.106;2023-10-09T11:46:20;23.45;;;15.95;;
12631;SDS011;6381;45.748;12.106;2023-10-09T11:49:08;31.15;;;18.98;;
12631;SDS011;6381;45.748;12.106;2023-10-09T11:52:11;25.35;;;19.02;;
12631;SDS011;6381;45.748;12.106;2023-10-09T11:54:58;21.23;;;14.55;;
12631;SDS011;6381;45.748;12.106;2023-10-09T11:57:27;24.83;;;15.15;;
12631;SDS011;6381;45.748;12.106;2023-10-09T12:00:02;21.52;;;17.02;;
12631;SDS011;6381;45.748;12.106;2023-10-09T12:02:52;17.67;;;14.57;;
12631;SDS011;6381;45.748;12.106;2023-10-09T12:05:21;26.45;;;17.73;;
12631;SDS011;6381;45.748;12.106;2023-10-09T12:07:55;21.60;;;15.57;;
12631;SDS011;6381;45.748;12.106;2023-10-09T12:10:26;22.50;;;16.60;;
12631;SDS011;6381;45.748;12.106;2023-10-09T12:12:57;18.60;;;14.07;;
12631;SDS011;6381;45.748;12.106;2023-10-09T12:15:27;24.77;;;16.00;;
12631;SDS011;6381;45.748;12.106;2023-10-09T12:18:07;21.73;;;15.77;;
12631;SDS011;6381;45.748;12.106;2023-10-09T12:20:42;19.73;;;14.95;;
12631;SDS011;6381;45.748;12.106;2023-10-09T12:23:18;24.95;;;17.20;;
12631;SDS011;6381;45.748;12.106;2023-10-09T12:25:48;26.65;;;16.25;;
12631;SDS011;6381;45.748;12.106;2023-10-09T12:28:18;20.08;;;14.88;;
12631;SDS011;6381;45.748;12.106;2023-10-09T12:30:50;21.27;;;14.82;;
12631;SDS011;6381;45.748;12.106;2023-10-09T12:33:20;21.52;;;14.88;;
12631;SDS011;6381;45.748;12.106;2023-10-09T12:35:56;20.63;;;13.52;;
12631;SDS011;6381;45.748;12.106;2023-10-09T12:38:28;18.33;;;13.68;;
12631;SDS011;6381;45.748;12.106;2023-10-09T12:41:03;20.17;;;14.80;;
12631;SDS011;6381;45.748;12.106;2023-10-09T12:43:45;18.50;;;13.85;;
12631;SDS011;6381;45.748;12.106;2023-10-09T12:46:16;17.58;;;13.60;;
12631;SDS011;6381;45.748;12.106;2023-10-09T12:48:45;22.52;;;15.10;;
12631;SDS011;6381;45.748;12.106;2023-10-09T12:51:14;19.67;;;12.02;;
12631;SDS011;6381;45.748;12.106;2023-10-09T12:53:45;19.90;;;13.65;;
12631;SDS011;6381;45.748;12.106;2023-10-09T12:56:15;27.20;;;16.02;;
12631;SDS011;6381;45.748;12.106;2023-10-09T12:58:45;19.65;;;14.32;;
12631;SDS011;6381;45.748;12.106;2023-10-09T13:01:22;20.35;;;15.70;;
12631;SDS011;6381;45.748;12.106;2023-10-09T13:03:52;21.25;;;14.85;;
12631;SDS011;6381;45.748;12.106;2023-10-09T13:06:21;21.20;;;16.05;;
12631;SDS011;6381;45.748;12.106;2023-10-09T13:08:52;24.20;;;15.38;;
12631;SDS011;6381;45.748;12.106;2023-10-09T13:11:26;21.50;;;13.73;;
12631;SDS011;6381;45.748;12.106;2023-10-09T13:13:56;24.00;;;15.45;;
12631;SDS011;6381;45.748;12.106;2023-10-09T13:16:40;22.52;;;15.77;;
12631;SDS011;6381;45.748;12.106;2023-10-09T13:19:09;22.45;;;15.30;;
12631;SDS011;6381;45.748;12.106;2023-10-09T13:21:38;23.27;;;16.48;;
12631;SDS011;6381;45.748;12.106;2023-10-09T13:24:07;18.08;;;13.35;;
12631;SDS011;6381;45.748;12.106;2023-10-09T13:26:41;17.70;;;13.23;;
12631;SDS011;6381;45.748;12.106;2023-10-09T13:29:12;19.23;;;12.55;;
12631;SDS011;6381;45.748;12.106;2023-10-09T13:31:51;18.85;;;13.90;;
12631;SDS011;6381;45.748;12.106;2023-10-09T13:34:30;21.92;;;14.38;;
12631;SDS011;6381;45.748;12.106;2023-10-09T13:37:00;21.58;;;14.35;;
12631;SDS011;6381;45.748;12.106;2023-10-09T13:39:38;19.08;;;12.38;;
12631;SDS011;6381;45.748;12.106;2023-10-09T13:42:19;19.75;;;15.07;;
12631;SDS011;6381;45.748;12.106;2023-10-09T13:44:52;20.40;;;14.45;;
12631;SDS011;6381;45.748;12.106;2023-10-09T13:47:23;19.38;;;14.45;;
12631;SDS011;6381;45.748;12.106;2023-10-09T13:49:59;20.27;;;13.25;;
12631;SDS011;6381;45.748;12.106;2023-10-09T13:52:28;20.17;;;13.40;;
12631;SDS011;6381;45.748;12.106;2023-10-09T13:54:58;20.35;;;14.07;;
12631;SDS011;6381;45.748;12.106;2023-10-09T13:57:42;18.15;;;14.15;;
12631;SDS011;6381;45.748;12.106;2023-10-09T14:00:13;17.17;;;13.38;;
12631;SDS011;6381;45.748;12.106;2023-10-09T14:02:48;24.88;;;13.95;;
12631;SDS011;6381;45.748;12.106;2023-10-09T14:05:18;21.23;;;13.32;;
12631;SDS011;6381;45.748;12.106;2023-10-09T14:07:49;18.30;;;12.38;;
12631;SDS011;6381;45.748;12.106;2023-10-09T14:10:21;18.67;;;13.10;;
12631;SDS011;6381;45.748;12.106;2023-10-09T14:12:54;20.48;;;13.18;;
12631;SDS011;6381;45.748;12.106;2023-10-09T14:15:25;13.95;;;10.93;;
12631;SDS011;6381;45.748;12.106;2023-10-09T14:17:56;19.20;;;11.98;;
12631;SDS011;6381;45.748;12.106;2023-10-09T14:20:25;18.55;;;12.95;;
12631;SDS011;6381;45.748;12.106;2023-10-09T14:22:58;18.55;;;12.70;;
12631;SDS011;6381;45.748;12.106;2023-10-09T14:25:34;16.27;;;13.23;;
12631;SDS011;6381;45.748;12.106;2023-10-09T14:28:07;18.55;;;12.63;;
12631;SDS011;6381;45.748;12.106;2023-10-09T14:30:36;17.52;;;12.02;;
12631;SDS011;6381;45.748;12.106;2023-10-09T14:33:11;15.48;;;12.45;;
12631;SDS011;6381;45.748;12.106;2023-10-09T14:35:41;22.00;;;13.68;;
12631;SDS011;6381;45.748;12.106;2023-10-09T14:38:12;23.40;;;13.43;;
12631;SDS011;6381;45.748;12.106;2023-10-09T14:40:42;16.80;;;11.90;;
12631;SDS011;6381;45.748;12.106;2023-10-09T14:43:12;22.30;;;12.82;;
12631;SDS011;6381;45.748;12.106;2023-10-09T14:45:47;20.02;;;12.30;;
12631;SDS011;6381;45.748;12.106;2023-10-09T14:48:22;15.02;;;10.65;;
12631;SDS011;6381;45.748;12.106;2023-10-09T14:50:56;19.75;;;11.82;;
12631;SDS011;6381;45.748;12.106;2023-10-09T14:53:32;19.95;;;12.98;;
12631;SDS011;6381;45.748;12.106;2023-10-09T14:56:01;18.30;;;12.68;;
12631;SDS011;6381;45.748;12.106;2023-10-09T14:58:36;19.60;;;11.07;;
12631;SDS011;6381;45.748;12.106;2023-10-09T15:01:09;18.60;;;11.57;;
12631;SDS011;6381;45.748;12.106;2023-10-09T15:03:43;17.25;;;12.55;;
12631;SDS011;6381;45.748;12.106;2023-10-09T15:06:15;16.88;;;10.70;;
12631;SDS011;6381;45.748;12.106;2023-10-09T15:08:45;13.95;;;11.25;;
12631;SDS011;6381;45.748;12.106;2023-10-09T15:11:16;18.23;;;11.02;;
12631;SDS011;6381;45.748;12.106;2023-10-09T15:13:50;20.50;;;12.20;;
12631;SDS011;6381;45.748;12.106;2023-10-09T15:16:20;19.58;;;11.73;;
12631;SDS011;6381;45.748;12.106;2023-10-09T15:18:55;17.67;;;12.20;;
12631;SDS011;6381;45.748;12.106;2023-10-09T15:21:29;16.60;;;11.48;;
12631;SDS011;6381;45.748;12.106;2023-10-09T15:24:00;20.63;;;12.52;;
12631;SDS011;6381;45.748;12.106;2023-10-09T15:26:29;18.17;;;10.57;;